createdAt,value
2019-01-25T00:02:04.185Z,63.71
2019-01-25T00:07:11.891Z,71.58
2019-01-25T00:12:19.755Z,67.33
2019-01-25T00:17:27.466Z,71.20
2019-01-25T00:22:35.298Z,76.85
2019-01-25T00:27:43.047Z,67.52
2019-01-25T00:32:50.876Z,73.06
2019-01-25T00:37:58.581Z,72.60
2019-01-25T00:43:06.431Z,79.55
2019-01-25T00:48:14.119Z,75.18
2019-01-25T00:53:21.890Z,70.57
2019-01-25T00:58:29.672Z,71.95
2019-01-25T01:03:37.422Z,71.72
2019-01-25T01:08:45.162Z,81.25
2019-01-25T01:13:52.887Z,86.06
2019-01-25T01:19:00.533Z,76.09
2019-01-25T01:24:08.276Z,77.84
2019-01-25T01:29:16.024Z,87.30
2019-01-25T01:34:23.871Z,78.08
2019-01-25T01:39:31.570Z,77.93
2019-01-25T01:44:39.403Z,78.91
2019-01-25T01:49:47.097Z,78.76
2019-01-25T01:54:54.973Z,80.23
2019-01-25T02:00:02.689Z,78.60
2019-01-25T02:05:10.456Z,80.51
2019-01-25T02:10:18.144Z,93.99
2019-01-25T02:15:25.889Z,86.89
2019-01-25T02:20:33.605Z,91.14
2019-01-25T02:25:41.498Z,94.68
2019-01-25T02:30:49.195Z,84.56
2019-01-25T02:35:56.953Z,82.68
2019-01-25T02:41:04.654Z,78.75
2019-01-25T02:46:12.467Z,80.90
2019-01-25T02:51:20.165Z,80.14
2019-01-25T02:56:27.976Z,82.82
2019-01-25T03:01:35.689Z,80.23
2019-01-25T03:06:43.506Z,85.35
2019-01-25T03:11:51.178Z,78.86
2019-01-25T03:16:58.987Z,83.43
2019-01-25T03:22:06.696Z,93.19
2019-01-25T03:27:14.475Z,80.62
2019-01-25T03:32:22.323Z,83.32
2019-01-25T03:37:30.052Z,78.14
2019-01-25T03:42:37.822Z,75.95
2019-01-25T03:47:45.566Z,76.31
2019-01-25T03:52:53.246Z,87.95
2019-01-25T03:58:01.058Z,74.30
2019-01-25T04:03:08.777Z,72.58
2019-01-25T04:08:16.502Z,73.42
2019-01-25T04:13:24.154Z,82.15
2019-01-25T04:18:31.898Z,75.30
2019-01-25T04:23:39.624Z,73.18
2019-01-25T04:28:47.443Z,71.26
2019-01-25T04:33:55.185Z,83.40
2019-01-25T04:39:03.084Z,73.76
2019-01-25T04:44:10.819Z,70.56
2019-01-25T04:49:18.737Z,68.15
2019-01-25T04:54:26.411Z,74.88
2019-01-25T04:59:34.244Z,82.38
2019-01-25T05:04:42.008Z,73.69
2019-01-25T05:09:49.872Z,69.53
2019-01-25T05:14:57.540Z,71.28
2019-01-25T05:20:05.359Z,68.05
2019-01-25T05:25:13.078Z,75.94
2019-01-25T05:30:20.824Z,75.19
2019-01-25T05:35:28.498Z,85.22
2019-01-25T05:40:36.314Z,79.49
2019-01-25T05:45:44.051Z,70.91
2019-01-25T05:50:51.786Z,67.63
2019-01-25T05:55:59.470Z,135.29
2019-01-25T06:01:07.226Z,62.36
2019-01-25T06:06:14.884Z,61.48
2019-01-25T06:11:22.671Z,61.09
2019-01-25T06:16:30.389Z,49.81
2019-01-25T06:21:38.295Z,48.96
2019-01-25T06:26:45.982Z,63.67
2019-01-25T06:31:56.252Z,55.69
2019-01-25T06:36:53.981Z,56.81
2019-01-25T06:42:01.752Z,57.89
2019-01-25T06:47:09.527Z,58.87
2019-01-25T06:52:17.224Z,57.39
2019-01-25T06:57:24.934Z,62.48
2019-01-25T07:02:33.994Z,63.22
2019-01-25T07:07:41.689Z,62.92
2019-01-25T07:12:49.466Z,72.99
2019-01-25T07:17:58.547Z,72.75
2019-01-25T07:23:06.602Z,71.43
2019-01-25T07:28:14.297Z,98.42
2019-01-25T07:33:22.187Z,95.65
2019-01-25T07:38:29.765Z,92.43
2019-01-25T07:43:37.538Z,98.71
2019-01-25T07:48:45.317Z,87.81
2019-01-25T07:53:53.059Z,74.13
2019-01-25T07:59:00.797Z,75.94
2019-01-25T08:04:08.564Z,90.73
2019-01-25T08:09:18.237Z,98.39
2019-01-25T08:14:26.129Z,87.80
2019-01-25T08:19:33.802Z,86.86
2019-01-25T08:24:43.861Z,108.55
2019-01-25T08:29:48.934Z,110.12
2019-01-25T08:34:48.135Z,88.08
2019-01-25T08:39:55.897Z,107.39
2019-01-25T08:45:03.709Z,109.81
2019-01-25T08:50:11.441Z,108.37
2019-01-25T08:55:21.380Z,90.85
2019-01-25T09:00:27.384Z,95.72
2019-01-25T09:05:35.203Z,92.90
2019-01-25T09:10:42.876Z,97.59
2019-01-25T09:15:50.634Z,90.58
2019-01-25T09:20:58.325Z,113.32
2019-01-25T09:26:06.090Z,99.70
2019-01-25T09:31:13.753Z,97.10
2019-01-25T09:36:21.570Z,97.76
2019-01-25T09:41:29.270Z,94.39
2019-01-25T09:46:37.029Z,94.86
2019-01-25T09:51:44.702Z,108.84
2019-01-25T09:56:52.480Z,111.75
2019-01-25T10:02:00.179Z,99.70
2019-01-25T10:07:10.033Z,97.99
2019-01-25T10:12:17.725Z,97.14
2019-01-25T10:17:25.547Z,116.24
2019-01-25T10:22:33.276Z,122.36
2019-01-25T10:27:41.005Z,107.46
2019-01-25T10:32:48.690Z,105.01
2019-01-25T10:37:56.630Z,126.44
2019-01-25T10:43:04.374Z,125.33
2019-01-25T10:48:12.137Z,109.36
2019-01-25T10:53:19.816Z,99.99
2019-01-25T10:58:27.679Z,100.31
2019-01-25T11:03:35.354Z,94.81
2019-01-25T11:08:43.182Z,99.25
2019-01-25T11:13:50.890Z,98.37
2019-01-25T11:18:58.624Z,109.04
2019-01-25T11:24:07.867Z,97.26
2019-01-25T11:29:13.651Z,85.98
2019-01-25T11:34:21.340Z,81.42
2019-01-25T11:39:29.103Z,86.67
2019-01-25T11:44:36.755Z,84.95
2019-01-25T11:49:44.462Z,70.94
2019-01-25T11:54:52.120Z,75.18
2019-01-25T11:59:59.954Z,59.72
2019-01-25T12:05:07.659Z,59.61
2019-01-25T12:10:15.499Z,57.96
2019-01-25T12:15:23.192Z,64.06
2019-01-25T12:20:31.027Z,55.53
2019-01-25T12:25:38.745Z,61.83
2019-01-25T12:30:46.459Z,36.67
2019-01-25T12:35:54.150Z,27.18
2019-01-25T12:41:01.976Z,26.48
2019-01-25T12:46:09.702Z,29.17
2019-01-25T12:51:17.534Z,49.61
2019-01-25T12:56:25.213Z,40.80
2019-01-25T13:01:35.122Z,28.62
2019-01-25T13:06:40.333Z,26.85
2019-01-25T13:11:48.161Z,24.72
2019-01-25T13:16:55.906Z,23.17
2019-01-25T13:22:03.704Z,20.84
2019-01-25T13:27:11.402Z,18.24
2019-01-25T13:32:19.142Z,18.15
2019-01-25T13:37:31.322Z,19.70
2019-01-25T13:42:34.075Z,20.17
2019-01-25T13:47:41.756Z,17.10
2019-01-25T13:52:49.549Z,19.14
2019-01-25T13:57:57.293Z,19.53
2019-01-25T14:03:05.159Z,16.68
2019-01-25T14:08:12.870Z,16.45
2019-01-25T14:13:20.620Z,16.08
2019-01-25T14:18:28.326Z,17.61
2019-01-25T14:23:36.124Z,15.74
2019-01-25T14:28:43.807Z,15.01
2019-01-25T14:33:51.578Z,14.18
2019-01-25T14:38:59.272Z,13.57
2019-01-25T14:44:07.216Z,13.50
2019-01-25T14:49:14.887Z,13.74
2019-01-25T14:54:22.677Z,13.06
2019-01-25T14:59:30.365Z,12.53
2019-01-25T15:04:38.278Z,12.10
2019-01-25T15:09:45.950Z,11.94
2019-01-25T15:14:53.644Z,12.39
2019-01-25T15:20:01.286Z,14.12
2019-01-25T15:25:09.072Z,13.31
2019-01-25T15:30:16.788Z,13.55
2019-01-25T15:35:24.512Z,12.35
2019-01-25T15:40:32.227Z,11.99
2019-01-25T15:45:40.030Z,12.69
2019-01-25T15:50:51.493Z,12.22
2019-01-25T15:55:58.462Z,11.83
2019-01-25T16:00:56.167Z,14.21
2019-01-25T16:06:08.822Z,13.50
2019-01-25T16:11:06.506Z,13.57
2019-01-25T16:16:14.282Z,13.36
2019-01-25T16:21:22.010Z,14.68
2019-01-25T16:26:29.842Z,16.67
2019-01-25T16:31:37.511Z,15.91
2019-01-25T16:36:45.372Z,16.59
2019-01-25T16:41:53.056Z,18.17
2019-01-25T16:47:00.918Z,18.20
2019-01-25T16:52:08.606Z,17.75
2019-01-25T16:57:16.357Z,18.83
2019-01-25T17:02:24.042Z,29.19
2019-01-25T17:07:31.869Z,31.56
2019-01-25T17:12:39.599Z,25.57
2019-01-25T17:17:47.432Z,35.27
2019-01-25T17:22:58.154Z,36.89
2019-01-25T17:27:58.003Z,30.39
2019-01-25T17:33:05.667Z,29.18
2019-01-25T17:38:13.434Z,31.93
2019-01-25T17:43:21.162Z,28.55
2019-01-25T17:48:28.942Z,47.57
2019-01-25T17:53:37.612Z,35.21
2019-01-25T17:58:46.236Z,45.62
2019-01-25T18:03:53.922Z,35.74
2019-01-25T18:09:01.681Z,36.58
2019-01-25T18:14:09.387Z,46.62
2019-01-25T18:19:17.258Z,42.36
2019-01-25T18:24:24.926Z,31.31
2019-01-25T18:29:32.799Z,31.56
2019-01-25T18:34:40.498Z,27.72
2019-01-25T18:39:48.338Z,30.15
2019-01-25T18:44:56.960Z,42.86
2019-01-25T18:50:03.390Z,29.83
2019-01-25T18:55:11.188Z,32.34
2019-01-25T19:00:18.982Z,48.21
2019-01-25T19:05:26.702Z,46.61
2019-01-25T19:10:34.487Z,49.96
2019-01-25T19:15:42.178Z,39.62
2019-01-25T19:20:49.923Z,34.12
2019-01-25T19:25:57.556Z,33.45
2019-01-25T19:31:05.460Z,44.03
2019-01-25T19:36:13.192Z,45.29
2019-01-25T19:41:20.966Z,45.71
2019-01-25T19:46:28.732Z,32.30
2019-01-25T19:51:36.612Z,29.80
2019-01-25T19:56:44.286Z,27.95
2019-01-25T20:01:52.122Z,32.34
2019-01-25T20:06:59.819Z,31.04
2019-01-25T20:12:07.512Z,27.41
2019-01-25T20:17:15.207Z,39.66
2019-01-25T20:22:23.005Z,41.59
2019-01-25T20:27:30.701Z,28.55
2019-01-25T20:32:38.428Z,36.32
2019-01-25T20:37:46.176Z,27.46
2019-01-25T20:42:53.970Z,37.74
2019-01-25T20:48:01.780Z,39.86
2019-01-25T20:53:09.544Z,36.15
2019-01-25T20:58:17.569Z,32.81
2019-01-25T21:03:25.310Z,43.88
2019-01-25T21:08:32.980Z,30.05
2019-01-25T21:13:40.734Z,28.71
2019-01-25T21:18:48.573Z,28.29
2019-01-25T21:23:56.388Z,39.63
2019-01-25T21:29:04.069Z,28.34
2019-01-25T21:34:11.826Z,26.55
2019-01-25T21:39:19.528Z,35.37
2019-01-25T21:44:27.306Z,39.82
2019-01-25T21:49:35.036Z,28.35
2019-01-25T21:54:42.772Z,34.61
2019-01-25T21:59:50.591Z,22.96
2019-01-25T22:04:58.303Z,36.03
2019-01-25T22:10:05.975Z,29.01
2019-01-25T22:15:13.898Z,28.97
2019-01-25T22:20:21.577Z,30.73
2019-01-25T22:25:29.344Z,28.46
2019-01-25T22:30:37.058Z,42.30
2019-01-25T22:35:44.833Z,47.26
2019-01-25T22:40:52.588Z,43.78
2019-01-25T22:46:00.390Z,46.00
2019-01-25T22:51:08.058Z,38.91
2019-01-25T22:56:15.946Z,30.72
2019-01-25T23:01:23.637Z,33.68
2019-01-25T23:06:31.430Z,56.03
2019-01-25T23:11:39.079Z,71.16
2019-01-25T23:16:46.887Z,64.31
2019-01-25T23:21:54.582Z,81.45
2019-01-25T23:27:02.401Z,103.63
2019-01-25T23:32:10.114Z,122.43
2019-01-25T23:37:17.952Z,124.34
2019-01-25T23:42:25.659Z,156.54
2019-01-25T23:47:33.431Z,128.68
2019-01-25T23:52:41.099Z,130.65
2019-01-25T23:57:48.877Z,136.30
